Etusivu
METAR-TAF:

METAR-TAF

Lentoasemat :

Lleida-Alguaire

Lleida, Espanja

Leveyspiiri: 41-43-40N, Pituuspiiri: 000-32-09E, korkeus merenpinnasta: 350 m

Tämänhetkinen sää

Tämä raportti tehtiin 15 minuuttia sitten, kello 04.00 UTC
Tuuli 7 kn idästä/koillisesta, vaihdellen pohjoisen/koillisen ja idän/kaakon välillä
Lämpötila 7°C
Kosteus 66%
Ilmanpaine 1021 hPa
Näkyvyys 10 km tai enemmän

METAR: LEDA 190400Z AUTO 06007KT 020V120 9999 NCD 07/01 Q1021

Aika: 05:15 (04:15 UTC)


TAF: puuttuu

Säähavainnot ja -ennusteet yli 4000 lentoasemalta (METAR- ja TAF-raportit).

Käytössä olevat sääasemat on merkitty karttaan keltaisilla ja punaisilla pisteillä.

Aseta hiiri pisteen päälle nähdäksesi sääaseman nimen.

Klikkaa sitten nähdäksesi säähavainnot ja -ennusteet.

Kartan vaihtaminen: klikkaa mustalla rastilla varustettuja vihreitä pisteitä, niin voit zoomata sisään; viivalla varustettua vihreää pistettä, niin voit zoomata ulos tai vihreitä nuolia, niin pääset viereisille kartoille.


METAR-TAF: